sensor_id;sensor_type;location;lat;lon;timestamp;P1;durP1;ratioP1;P2;durP2;ratioP2
60722;SDS011;46574;52.818;6.516;2023-04-25T00:02:10;16.75;;;4.70;;
60722;SDS011;46574;52.818;6.516;2023-04-25T00:04:35;15.48;;;5.43;;
60722;SDS011;46574;52.818;6.516;2023-04-25T00:07:02;13.93;;;4.95;;
60722;SDS011;46574;52.818;6.516;2023-04-25T00:09:28;16.10;;;5.07;;
60722;SDS011;46574;52.818;6.516;2023-04-25T00:11:54;16.27;;;5.20;;
60722;SDS011;46574;52.818;6.516;2023-04-25T00:14:20;18.25;;;5.03;;
60722;SDS011;46574;52.818;6.516;2023-04-25T00:16:46;18.73;;;5.28;;
60722;SDS011;46574;52.818;6.516;2023-04-25T00:19:13;14.50;;;4.72;;
60722;SDS011;46574;52.818;6.516;2023-04-25T00:21:39;15.20;;;5.13;;
60722;SDS011;46574;52.818;6.516;2023-04-25T00:24:06;16.08;;;5.05;;
60722;SDS011;46574;52.818;6.516;2023-04-25T00:26:33;14.75;;;5.30;;
60722;SDS011;46574;52.818;6.516;2023-04-25T00:28:59;14.68;;;5.72;;
60722;SDS011;46574;52.818;6.516;2023-04-25T00:31:25;14.63;;;5.20;;
60722;SDS011;46574;52.818;6.516;2023-04-25T00:33:51;18.15;;;6.00;;
60722;SDS011;46574;52.818;6.516;2023-04-25T00:36:18;16.45;;;5.50;;
60722;SDS011;46574;52.818;6.516;2023-04-25T00:38:43;15.45;;;5.57;;
60722;SDS011;46574;52.818;6.516;2023-04-25T00:41:09;15.32;;;5.50;;
60722;SDS011;46574;52.818;6.516;2023-04-25T00:43:36;15.57;;;5.43;;
60722;SDS011;46574;52.818;6.516;2023-04-25T00:46:02;14.65;;;6.07;;
60722;SDS011;46574;52.818;6.516;2023-04-25T00:48:28;17.30;;;5.88;;
60722;SDS011;46574;52.818;6.516;2023-04-25T00:50:54;13.85;;;5.47;;
60722;SDS011;46574;52.818;6.516;2023-04-25T00:53:22;14.25;;;5.03;;
60722;SDS011;46574;52.818;6.516;2023-04-25T00:55:49;12.70;;;5.13;;
60722;SDS011;46574;52.818;6.516;2023-04-25T01:00:45;16.70;;;5.45;;
60722;SDS011;46574;52.818;6.516;2023-04-25T01:03:12;13.07;;;5.53;;
60722;SDS011;46574;52.818;6.516;2023-04-25T01:05:38;18.40;;;5.03;;
60722;SDS011;46574;52.818;6.516;2023-04-25T01:08:06;12.23;;;4.97;;
60722;SDS011;46574;52.818;6.516;2023-04-25T01:10:32;13.02;;;5.00;;
60722;SDS011;46574;52.818;6.516;2023-04-25T01:12:58;17.50;;;4.70;;
60722;SDS011;46574;52.818;6.516;2023-04-25T01:15:23;13.23;;;5.20;;
60722;SDS011;46574;52.818;6.516;2023-04-25T01:17:49;14.77;;;5.18;;
60722;SDS011;46574;52.818;6.516;2023-04-25T01:20:15;15.65;;;5.88;;
60722;SDS011;46574;52.818;6.516;2023-04-25T01:22:41;15.38;;;4.75;;
60722;SDS011;46574;52.818;6.516;2023-04-25T01:25:08;14.55;;;5.00;;
60722;SDS011;46574;52.818;6.516;2023-04-25T01:27:35;13.50;;;5.28;;
60722;SDS011;46574;52.818;6.516;2023-04-25T01:30:02;12.77;;;4.80;;
60722;SDS011;46574;52.818;6.516;2023-04-25T01:32:28;15.57;;;5.20;;
60722;SDS011;46574;52.818;6.516;2023-04-25T01:34:56;14.77;;;5.30;;
60722;SDS011;46574;52.818;6.516;2023-04-25T01:37:22;15.10;;;5.05;;
60722;SDS011;46574;52.818;6.516;2023-04-25T01:39:48;16.75;;;5.25;;
60722;SDS011;46574;52.818;6.516;2023-04-25T01:42:15;16.05;;;5.15;;
60722;SDS011;46574;52.818;6.516;2023-04-25T01:44:41;15.40;;;6.38;;
60722;SDS011;46574;52.818;6.516;2023-04-25T01:47:06;17.25;;;5.95;;
60722;SDS011;46574;52.818;6.516;2023-04-25T01:49:32;10.75;;;5.10;;
60722;SDS011;46574;52.818;6.516;2023-04-25T01:51:57;14.75;;;5.03;;
60722;SDS011;46574;52.818;6.516;2023-04-25T01:54:23;12.93;;;4.97;;
60722;SDS011;46574;52.818;6.516;2023-04-25T01:56:50;14.13;;;4.60;;
60722;SDS011;46574;52.818;6.516;2023-04-25T01:59:16;14.60;;;4.50;;
60722;SDS011;46574;52.818;6.516;2023-04-25T02:01:43;14.85;;;4.78;;
60722;SDS011;46574;52.818;6.516;2023-04-25T02:04:08;12.05;;;4.38;;
60722;SDS011;46574;52.818;6.516;2023-04-25T02:06:34;16.83;;;5.00;;
60722;SDS011;46574;52.818;6.516;2023-04-25T02:09:00;11.93;;;4.85;;
60722;SDS011;46574;52.818;6.516;2023-04-25T02:11:25;13.68;;;5.32;;
60722;SDS011;46574;52.818;6.516;2023-04-25T02:13:51;15.52;;;4.85;;
60722;SDS011;46574;52.818;6.516;2023-04-25T02:16:16;10.68;;;4.18;;
60722;SDS011;46574;52.818;6.516;2023-04-25T02:18:42;9.30;;;3.88;;
60722;SDS011;46574;52.818;6.516;2023-04-25T02:21:09;12.10;;;3.83;;
60722;SDS011;46574;52.818;6.516;2023-04-25T02:23:36;9.30;;;4.05;;
60722;SDS011;46574;52.818;6.516;2023-04-25T02:26:02;13.35;;;4.15;;
60722;SDS011;46574;52.818;6.516;2023-04-25T02:28:27;10.27;;;3.80;;
60722;SDS011;46574;52.818;6.516;2023-04-25T02:30:53;14.75;;;4.25;;
60722;SDS011;46574;52.818;6.516;2023-04-25T02:33:19;13.57;;;3.95;;
60722;SDS011;46574;52.818;6.516;2023-04-25T02:35:46;16.00;;;4.63;;
60722;SDS011;46574;52.818;6.516;2023-04-25T02:38:12;12.68;;;3.53;;
60722;SDS011;46574;52.818;6.516;2023-04-25T02:40:37;14.25;;;3.92;;
60722;SDS011;46574;52.818;6.516;2023-04-25T02:43:03;12.68;;;3.97;;
60722;SDS011;46574;52.818;6.516;2023-04-25T02:45:28;10.32;;;3.03;;
60722;SDS011;46574;52.818;6.516;2023-04-25T02:47:54;14.13;;;3.67;;
60722;SDS011;46574;52.818;6.516;2023-04-25T02:50:19;9.38;;;3.20;;
60722;SDS011;46574;52.818;6.516;2023-04-25T02:52:45;10.90;;;3.50;;
60722;SDS011;46574;52.818;6.516;2023-04-25T02:55:12;12.32;;;2.90;;
60722;SDS011;46574;52.818;6.516;2023-04-25T02:57:38;14.30;;;3.08;;
60722;SDS011;46574;52.818;6.516;2023-04-25T03:00:04;9.15;;;3.20;;
60722;SDS011;46574;52.818;6.516;2023-04-25T03:02:30;8.07;;;2.75;;
60722;SDS011;46574;52.818;6.516;2023-04-25T03:04:56;10.52;;;3.58;;
60722;SDS011;46574;52.818;6.516;2023-04-25T03:07:21;11.93;;;2.80;;
60722;SDS011;46574;52.818;6.516;2023-04-25T03:09:47;11.02;;;3.42;;
60722;SDS011;46574;52.818;6.516;2023-04-25T03:12:12;9.60;;;3.15;;
60722;SDS011;46574;52.818;6.516;2023-04-25T03:14:38;13.23;;;3.50;;
60722;SDS011;46574;52.818;6.516;2023-04-25T03:17:04;7.80;;;2.85;;
60722;SDS011;46574;52.818;6.516;2023-04-25T03:19:29;11.05;;;3.83;;
60722;SDS011;46574;52.818;6.516;2023-04-25T03:21:55;12.70;;;3.50;;
60722;SDS011;46574;52.818;6.516;2023-04-25T03:24:21;8.32;;;2.80;;
60722;SDS011;46574;52.818;6.516;2023-04-25T03:26:46;11.15;;;2.88;;
60722;SDS011;46574;52.818;6.516;2023-04-25T03:29:12;9.65;;;3.15;;
60722;SDS011;46574;52.818;6.516;2023-04-25T03:31:38;7.60;;;2.78;;
60722;SDS011;46574;52.818;6.516;2023-04-25T03:34:03;10.57;;;2.75;;
60722;SDS011;46574;52.818;6.516;2023-04-25T03:36:29;4.85;;;1.80;;
60722;SDS011;46574;52.818;6.516;2023-04-25T03:38:55;7.38;;;2.17;;
60722;SDS011;46574;52.818;6.516;2023-04-25T03:41:21;4.63;;;2.03;;
60722;SDS011;46574;52.818;6.516;2023-04-25T03:43:46;6.47;;;2.08;;
60722;SDS011;46574;52.818;6.516;2023-04-25T03:46:12;5.20;;;1.73;;
60722;SDS011;46574;52.818;6.516;2023-04-25T03:48:38;6.90;;;1.90;;
60722;SDS011;46574;52.818;6.516;2023-04-25T03:51:03;5.25;;;2.42;;
60722;SDS011;46574;52.818;6.516;2023-04-25T03:53:29;6.38;;;1.52;;
60722;SDS011;46574;52.818;6.516;2023-04-25T03:55:54;7.55;;;1.90;;
60722;SDS011;46574;52.818;6.516;2023-04-25T03:58:20;5.90;;;1.58;;
60722;SDS011;46574;52.818;6.516;2023-04-25T04:00:48;6.18;;;2.00;;
60722;SDS011;46574;52.818;6.516;2023-04-25T04:03:13;6.35;;;2.65;;
60722;SDS011;46574;52.818;6.516;2023-04-25T04:05:39;4.50;;;2.28;;
60722;SDS011;46574;52.818;6.516;2023-04-25T04:08:05;4.40;;;1.40;;
60722;SDS011;46574;52.818;6.516;2023-04-25T04:10:31;4.57;;;1.60;;
60722;SDS011;46574;52.818;6.516;2023-04-25T04:12:57;3.55;;;1.92;;
60722;SDS011;46574;52.818;6.516;2023-04-25T04:15:22;4.13;;;1.73;;
60722;SDS011;46574;52.818;6.516;2023-04-25T04:17:48;6.25;;;2.20;;
60722;SDS011;46574;52.818;6.516;2023-04-25T04:20:14;8.43;;;2.25;;
60722;SDS011;46574;52.818;6.516;2023-04-25T04:22:40;4.00;;;2.05;;
60722;SDS011;46574;52.818;6.516;2023-04-25T04:25:06;9.10;;;2.17;;
60722;SDS011;46574;52.818;6.516;2023-04-25T04:27:32;6.50;;;1.83;;
60722;SDS011;46574;52.818;6.516;2023-04-25T04:29:58;5.10;;;1.88;;
60722;SDS011;46574;52.818;6.516;2023-04-25T04:32:23;8.25;;;2.00;;
60722;SDS011;46574;52.818;6.516;2023-04-25T04:34:50;5.57;;;2.20;;
60722;SDS011;46574;52.818;6.516;2023-04-25T04:37:17;7.07;;;2.50;;
60722;SDS011;46574;52.818;6.516;2023-04-25T04:39:42;9.60;;;2.22;;
60722;SDS011;46574;52.818;6.516;2023-04-25T04:42:08;5.82;;;2.00;;
60722;SDS011;46574;52.818;6.516;2023-04-25T04:44:33;8.80;;;2.78;;
60722;SDS011;46574;52.818;6.516;2023-04-25T04:47:00;7.13;;;2.08;;
60722;SDS011;46574;52.818;6.516;2023-04-25T04:49:26;10.80;;;2.22;;
60722;SDS011;46574;52.818;6.516;2023-04-25T04:51:52;11.77;;;3.10;;
60722;SDS011;46574;52.818;6.516;2023-04-25T04:54:19;9.25;;;2.22;;
60722;SDS011;46574;52.818;6.516;2023-04-25T04:56:45;8.23;;;2.47;;
60722;SDS011;46574;52.818;6.516;2023-04-25T04:59:11;8.10;;;2.53;;
60722;SDS011;46574;52.818;6.516;2023-04-25T05:01:36;8.48;;;3.10;;
60722;SDS011;46574;52.818;6.516;2023-04-25T05:04:02;6.72;;;2.45;;
60722;SDS011;46574;52.818;6.516;2023-04-25T05:06:28;8.63;;;2.97;;
60722;SDS011;46574;52.818;6.516;2023-04-25T05:08:55;8.90;;;2.60;;
60722;SDS011;46574;52.818;6.516;2023-04-25T05:11:21;8.05;;;2.50;;
60722;SDS011;46574;52.818;6.516;2023-04-25T05:13:48;6.70;;;2.42;;
60722;SDS011;46574;52.818;6.516;2023-04-25T05:16:14;9.95;;;3.33;;
60722;SDS011;46574;52.818;6.516;2023-04-25T05:18:40;9.98;;;2.53;;
60722;SDS011;46574;52.818;6.516;2023-04-25T05:21:06;7.97;;;2.75;;
60722;SDS011;46574;52.818;6.516;2023-04-25T05:23:32;9.80;;;2.40;;
60722;SDS011;46574;52.818;6.516;2023-04-25T05:26:00;7.45;;;2.45;;
60722;SDS011;46574;52.818;6.516;2023-04-25T05:28:26;7.85;;;2.28;;
60722;SDS011;46574;52.818;6.516;2023-04-25T05:30:52;8.25;;;2.42;;
60722;SDS011;46574;52.818;6.516;2023-04-25T05:33:17;10.23;;;2.50;;
60722;SDS011;46574;52.818;6.516;2023-04-25T05:35:43;8.88;;;2.67;;
60722;SDS011;46574;52.818;6.516;2023-04-25T05:38:09;11.07;;;2.60;;
60722;SDS011;46574;52.818;6.516;2023-04-25T05:40:35;7.35;;;2.40;;
60722;SDS011;46574;52.818;6.516;2023-04-25T05:43:01;5.13;;;2.83;;
60722;SDS011;46574;52.818;6.516;2023-04-25T05:45:27;8.23;;;2.83;;
60722;SDS011;46574;52.818;6.516;2023-04-25T05:47:52;8.25;;;2.25;;
60722;SDS011;46574;52.818;6.516;2023-04-25T05:50:18;8.35;;;2.38;;
60722;SDS011;46574;52.818;6.516;2023-04-25T05:52:43;7.63;;;2.45;;
60722;SDS011;46574;52.818;6.516;2023-04-25T05:55:09;6.03;;;2.88;;
60722;SDS011;46574;52.818;6.516;2023-04-25T05:57:35;12.38;;;2.50;;
60722;SDS011;46574;52.818;6.516;2023-04-25T06:00:00;9.95;;;2.83;;
60722;SDS011;46574;52.818;6.516;2023-04-25T06:02:26;7.30;;;2.05;;
60722;SDS011;46574;52.818;6.516;2023-04-25T06:04:52;7.30;;;2.30;;
60722;SDS011;46574;52.818;6.516;2023-04-25T06:07:18;7.10;;;2.20;;
60722;SDS011;46574;52.818;6.516;2023-04-25T06:09:45;8.98;;;2.47;;
60722;SDS011;46574;52.818;6.516;2023-04-25T06:12:11;8.05;;;2.97;;
60722;SDS011;46574;52.818;6.516;2023-04-25T06:14:36;8.45;;;2.38;;
60722;SDS011;46574;52.818;6.516;2023-04-25T06:17:02;7.97;;;2.35;;
60722;SDS011;46574;52.818;6.516;2023-04-25T06:19:35;8.02;;;2.20;;
60722;SDS011;46574;52.818;6.516;2023-04-25T06:22:01;7.13;;;2.25;;
60722;SDS011;46574;52.818;6.516;2023-04-25T06:24:27;6.68;;;1.95;;
60722;SDS011;46574;52.818;6.516;2023-04-25T06:26:53;10.60;;;2.05;;
60722;SDS011;46574;52.818;6.516;2023-04-25T06:29:19;6.88;;;2.10;;
60722;SDS011;46574;52.818;6.516;2023-04-25T06:31:45;11.25;;;2.28;;
60722;SDS011;46574;52.818;6.516;2023-04-25T06:34:10;7.75;;;2.75;;
60722;SDS011;46574;52.818;6.516;2023-04-25T06:36:36;8.18;;;2.80;;
60722;SDS011;46574;52.818;6.516;2023-04-25T06:39:02;6.18;;;2.22;;
60722;SDS011;46574;52.818;6.516;2023-04-25T06:41:27;6.40;;;1.90;;
60722;SDS011;46574;52.818;6.516;2023-04-25T06:43:53;10.13;;;2.15;;
60722;SDS011;46574;52.818;6.516;2023-04-25T06:46:19;6.97;;;2.03;;
60722;SDS011;46574;52.818;6.516;2023-04-25T06:48:44;9.77;;;2.15;;
60722;SDS011;46574;52.818;6.516;2023-04-25T06:51:10;6.18;;;2.00;;
60722;SDS011;46574;52.818;6.516;2023-04-25T06:53:38;9.05;;;1.92;;
60722;SDS011;46574;52.818;6.516;2023-04-25T06:56:04;7.63;;;2.00;;
60722;SDS011;46574;52.818;6.516;2023-04-25T06:58:29;9.70;;;2.20;;
60722;SDS011;46574;52.818;6.516;2023-04-25T07:00:55;5.82;;;2.20;;
60722;SDS011;46574;52.818;6.516;2023-04-25T07:03:20;6.47;;;1.83;;
60722;SDS011;46574;52.818;6.516;2023-04-25T07:05:46;7.20;;;2.17;;
60722;SDS011;46574;52.818;6.516;2023-04-25T07:08:12;6.32;;;1.95;;
60722;SDS011;46574;52.818;6.516;2023-04-25T07:10:37;10.18;;;2.22;;
60722;SDS011;46574;52.818;6.516;2023-04-25T07:13:04;8.65;;;2.22;;
60722;SDS011;46574;52.818;6.516;2023-04-25T07:15:29;7.10;;;1.60;;
60722;SDS011;46574;52.818;6.516;2023-04-25T07:17:55;8.00;;;2.08;;
60722;SDS011;46574;52.818;6.516;2023-04-25T07:20:21;4.70;;;1.75;;
60722;SDS011;46574;52.818;6.516;2023-04-25T07:22:46;6.47;;;1.65;;
60722;SDS011;46574;52.818;6.516;2023-04-25T07:25:12;5.47;;;1.80;;
60722;SDS011;46574;52.818;6.516;2023-04-25T07:27:37;5.00;;;1.50;;
60722;SDS011;46574;52.818;6.516;2023-04-25T07:30:04;2.20;;;1.10;;
60722;SDS011;46574;52.818;6.516;2023-04-25T07:32:30;6.82;;;1.63;;
60722;SDS011;46574;52.818;6.516;2023-04-25T07:34:56;3.92;;;1.17;;
60722;SDS011;46574;52.818;6.516;2023-04-25T07:37:21;3.33;;;1.30;;
60722;SDS011;46574;52.818;6.516;2023-04-25T07:39:47;4.85;;;1.48;;
60722;SDS011;46574;52.818;6.516;2023-04-25T07:42:13;3.63;;;1.52;;
60722;SDS011;46574;52.818;6.516;2023-04-25T07:44:39;5.28;;;1.60;;
60722;SDS011;46574;52.818;6.516;2023-04-25T07:47:08;4.85;;;1.60;;
60722;SDS011;46574;52.818;6.516;2023-04-25T07:49:37;6.13;;;1.20;;
60722;SDS011;46574;52.818;6.516;2023-04-25T07:52:04;4.03;;;1.55;;
60722;SDS011;46574;52.818;6.516;2023-04-25T07:54:32;7.40;;;1.70;;
60722;SDS011;46574;52.818;6.516;2023-04-25T07:56:59;5.35;;;1.50;;
60722;SDS011;46574;52.818;6.516;2023-04-25T07:59:25;6.75;;;1.65;;
60722;SDS011;46574;52.818;6.516;2023-04-25T08:01:51;6.10;;;1.60;;
60722;SDS011;46574;52.818;6.516;2023-04-25T08:04:16;4.53;;;1.60;;
60722;SDS011;46574;52.818;6.516;2023-04-25T08:06:42;3.92;;;1.10;;
60722;SDS011;46574;52.818;6.516;2023-04-25T08:09:08;3.88;;;1.15;;
60722;SDS011;46574;52.818;6.516;2023-04-25T08:11:34;3.08;;;1.10;;
60722;SDS011;46574;52.818;6.516;2023-04-25T08:14:00;5.03;;;1.40;;
60722;SDS011;46574;52.818;6.516;2023-04-25T08:16:26;5.90;;;1.50;;
60722;SDS011;46574;52.818;6.516;2023-04-25T08:18:53;3.95;;;1.55;;
60722;SDS011;46574;52.818;6.516;2023-04-25T08:21:18;5.18;;;1.95;;
60722;SDS011;46574;52.818;6.516;2023-04-25T08:23:44;3.97;;;1.58;;
60722;SDS011;46574;52.818;6.516;2023-04-25T08:26:10;6.35;;;1.38;;
60722;SDS011;46574;52.818;6.516;2023-04-25T08:28:36;7.53;;;1.70;;
60722;SDS011;46574;52.818;6.516;2023-04-25T08:31:01;7.82;;;1.80;;
60722;SDS011;46574;52.818;6.516;2023-04-25T08:33:27;6.25;;;1.83;;
60722;SDS011;46574;52.818;6.516;2023-04-25T08:35:53;5.10;;;1.40;;
60722;SDS011;46574;52.818;6.516;2023-04-25T08:38:19;6.95;;;1.80;;
60722;SDS011;46574;52.818;6.516;2023-04-25T08:40:44;4.47;;;1.85;;
60722;SDS011;46574;52.818;6.516;2023-04-25T08:43:17;4.50;;;1.38;;
60722;SDS011;46574;52.818;6.516;2023-04-25T08:45:44;6.60;;;1.60;;
60722;SDS011;46574;52.818;6.516;2023-04-25T08:48:13;3.67;;;1.20;;
60722;SDS011;46574;52.818;6.516;2023-04-25T08:50:50;5.20;;;1.23;;
60722;SDS011;46574;52.818;6.516;2023-04-25T08:53:18;4.72;;;1.40;;
60722;SDS011;46574;52.818;6.516;2023-04-25T08:55:50;5.90;;;1.75;;
60722;SDS011;46574;52.818;6.516;2023-04-25T08:58:17;6.00;;;1.60;;
60722;SDS011;46574;52.818;6.516;2023-04-25T09:00:45;8.43;;;1.65;;
60722;SDS011;46574;52.818;6.516;2023-04-25T09:03:12;7.93;;;1.92;;
60722;SDS011;46574;52.818;6.516;2023-04-25T09:05:39;5.05;;;1.73;;
60722;SDS011;46574;52.818;6.516;2023-04-25T09:08:05;6.80;;;1.50;;
60722;SDS011;46574;52.818;6.516;2023-04-25T09:10:31;5.15;;;1.40;;
60722;SDS011;46574;52.818;6.516;2023-04-25T09:13:04;5.57;;;1.30;;
60722;SDS011;46574;52.818;6.516;2023-04-25T09:18:14;4.60;;;1.77;;
60722;SDS011;46574;52.818;6.516;2023-04-25T09:21:07;6.85;;;1.50;;
60722;SDS011;46574;52.818;6.516;2023-04-25T09:23:45;6.15;;;1.83;;
60722;SDS011;46574;52.818;6.516;2023-04-25T09:26:16;4.93;;;1.30;;
60722;SDS011;46574;52.818;6.516;2023-04-25T09:28:43;2.72;;;1.45;;
60722;SDS011;46574;52.818;6.516;2023-04-25T09:31:10;4.72;;;1.52;;
60722;SDS011;46574;52.818;6.516;2023-04-25T09:33:37;6.15;;;1.92;;
60722;SDS011;46574;52.818;6.516;2023-04-25T09:38:30;7.78;;;1.90;;
60722;SDS011;46574;52.818;6.516;2023-04-25T09:40:57;5.28;;;1.42;;
60722;SDS011;46574;52.818;6.516;2023-04-25T09:43:23;7.00;;;1.55;;
60722;SDS011;46574;52.818;6.516;2023-04-25T09:45:50;4.28;;;1.30;;
60722;SDS011;46574;52.818;6.516;2023-04-25T09:48:18;2.55;;;1.35;;
60722;SDS011;46574;52.818;6.516;2023-04-25T09:50:45;5.35;;;1.48;;
60722;SDS011;46574;52.818;6.516;2023-04-25T09:53:28;4.88;;;1.33;;
60722;SDS011;46574;52.818;6.516;2023-04-25T09:55:55;2.85;;;1.10;;
60722;SDS011;46574;52.818;6.516;2023-04-25T09:58:21;4.00;;;1.42;;
60722;SDS011;46574;52.818;6.516;2023-04-25T10:00:50;6.78;;;1.63;;
60722;SDS011;46574;52.818;6.516;2023-04-25T10:03:19;3.67;;;1.75;;
60722;SDS011;46574;52.818;6.516;2023-04-25T10:05:48;5.65;;;1.60;;
60722;SDS011;46574;52.818;6.516;2023-04-25T10:08:14;7.40;;;2.38;;
60722;SDS011;46574;52.818;6.516;2023-04-25T10:10:41;7.32;;;1.83;;
60722;SDS011;46574;52.818;6.516;2023-04-25T10:13:08;3.85;;;1.50;;
60722;SDS011;46574;52.818;6.516;2023-04-25T10:15:34;5.88;;;1.60;;
60722;SDS011;46574;52.818;6.516;2023-04-25T10:18:01;4.15;;;1.60;;
60722;SDS011;46574;52.818;6.516;2023-04-25T10:20:28;4.13;;;1.70;;
60722;SDS011;46574;52.818;6.516;2023-04-25T10:22:55;6.18;;;2.15;;
60722;SDS011;46574;52.818;6.516;2023-04-25T10:25:29;4.22;;;2.10;;
60722;SDS011;46574;52.818;6.516;2023-04-25T10:27:55;4.65;;;2.08;;
60722;SDS011;46574;52.818;6.516;2023-04-25T10:30:20;6.47;;;1.98;;
60722;SDS011;46574;52.818;6.516;2023-04-25T10:32:46;5.70;;;1.70;;
60722;SDS011;46574;52.818;6.516;2023-04-25T10:35:23;5.25;;;1.98;;
60722;SDS011;46574;52.818;6.516;2023-04-25T10:40:23;5.75;;;1.80;;
60722;SDS011;46574;52.818;6.516;2023-04-25T10:42:49;6.63;;;1.90;;
60722;SDS011;46574;52.818;6.516;2023-04-25T10:45:21;6.07;;;3.10;;
60722;SDS011;46574;52.818;6.516;2023-04-25T10:47:47;5.53;;;2.05;;
60722;SDS011;46574;52.818;6.516;2023-04-25T10:50:16;5.53;;;1.60;;
60722;SDS011;46574;52.818;6.516;2023-04-25T10:52:42;5.65;;;2.05;;
60722;SDS011;46574;52.818;6.516;2023-04-25T10:55:09;5.22;;;1.80;;
60722;SDS011;46574;52.818;6.516;2023-04-25T10:57:44;5.32;;;2.05;;
60722;SDS011;46574;52.818;6.516;2023-04-25T11:00:19;6.47;;;2.10;;
60722;SDS011;46574;52.818;6.516;2023-04-25T11:02:51;6.72;;;1.90;;
60722;SDS011;46574;52.818;6.516;2023-04-25T11:05:37;3.22;;;1.80;;
60722;SDS011;46574;52.818;6.516;2023-04-25T11:08:08;7.90;;;1.90;;
60722;SDS011;46574;52.818;6.516;2023-04-25T11:10:36;6.72;;;1.90;;
60722;SDS011;46574;52.818;6.516;2023-04-25T11:13:04;7.07;;;2.37;;
60722;SDS011;46574;52.818;6.516;2023-04-25T11:15:30;4.63;;;1.40;;
60722;SDS011;46574;52.818;6.516;2023-04-25T11:17:56;6.00;;;1.92;;
60722;SDS011;46574;52.818;6.516;2023-04-25T11:20:22;6.30;;;1.63;;
60722;SDS011;46574;52.818;6.516;2023-04-25T11:25:16;5.70;;;1.73;;
60722;SDS011;46574;52.818;6.516;2023-04-25T11:30:24;4.90;;;1.63;;
60722;SDS011;46574;52.818;6.516;2023-04-25T11:32:52;4.93;;;2.40;;
60722;SDS011;46574;52.818;6.516;2023-04-25T11:35:21;5.53;;;2.58;;
60722;SDS011;46574;52.818;6.516;2023-04-25T11:37:48;4.50;;;1.48;;
60722;SDS011;46574;52.818;6.516;2023-04-25T11:40:14;5.28;;;1.80;;
60722;SDS011;46574;52.818;6.516;2023-04-25T11:42:44;5.82;;;1.67;;
60722;SDS011;46574;52.818;6.516;2023-04-25T11:45:10;6.93;;;1.80;;
60722;SDS011;46574;52.818;6.516;2023-04-25T11:47:36;3.17;;;1.38;;
60722;SDS011;46574;52.818;6.516;2023-04-25T11:50:03;4.78;;;1.80;;
60722;SDS011;46574;52.818;6.516;2023-04-25T11:52:37;5.45;;;1.55;;
60722;SDS011;46574;52.818;6.516;2023-04-25T11:55:13;7.43;;;1.80;;
60722;SDS011;46574;52.818;6.516;2023-04-25T11:57:47;4.97;;;1.40;;
60722;SDS011;46574;52.818;6.516;2023-04-25T12:00:19;4.15;;;1.40;;
60722;SDS011;46574;52.818;6.516;2023-04-25T12:02:46;6.07;;;1.60;;
60722;SDS011;46574;52.818;6.516;2023-04-25T12:05:14;4.97;;;1.50;;
60722;SDS011;46574;52.818;6.516;2023-04-25T12:07:43;6.03;;;1.50;;
60722;SDS011;46574;52.818;6.516;2023-04-25T12:12:37;5.90;;;1.48;;
60722;SDS011;46574;52.818;6.516;2023-04-25T12:17:35;3.22;;;1.38;;
60722;SDS011;46574;52.818;6.516;2023-04-25T12:20:07;5.40;;;1.48;;
60722;SDS011;46574;52.818;6.516;2023-04-25T12:22:37;3.95;;;1.30;;
60722;SDS011;46574;52.818;6.516;2023-04-25T12:25:05;4.55;;;1.38;;
60722;SDS011;46574;52.818;6.516;2023-04-25T12:27:32;3.28;;;1.63;;
60722;SDS011;46574;52.818;6.516;2023-04-25T12:29:58;4.05;;;1.50;;
60722;SDS011;46574;52.818;6.516;2023-04-25T12:32:24;3.40;;;1.20;;
60722;SDS011;46574;52.818;6.516;2023-04-25T12:34:51;4.20;;;1.67;;
60722;SDS011;46574;52.818;6.516;2023-04-25T12:37:17;4.68;;;1.50;;
60722;SDS011;46574;52.818;6.516;2023-04-25T12:39:43;5.05;;;1.60;;
60722;SDS011;46574;52.818;6.516;2023-04-25T12:42:08;6.25;;;1.80;;
60722;SDS011;46574;52.818;6.516;2023-04-25T12:44:36;5.60;;;1.70;;
60722;SDS011;46574;52.818;6.516;2023-04-25T12:47:03;4.22;;;1.52;;
60722;SDS011;46574;52.818;6.516;2023-04-25T12:49:29;4.97;;;2.00;;
60722;SDS011;46574;52.818;6.516;2023-04-25T12:51:54;5.65;;;1.98;;
60722;SDS011;46574;52.818;6.516;2023-04-25T12:54:20;5.78;;;1.83;;
60722;SDS011;46574;52.818;6.516;2023-04-25T12:56:46;6.28;;;1.73;;
60722;SDS011;46574;52.818;6.516;2023-04-25T12:59:12;4.97;;;2.10;;
60722;SDS011;46574;52.818;6.516;2023-04-25T13:01:37;4.18;;;1.77;;
60722;SDS011;46574;52.818;6.516;2023-04-25T13:04:03;4.90;;;1.55;;
60722;SDS011;46574;52.818;6.516;2023-04-25T13:06:29;3.80;;;1.45;;
60722;SDS011;46574;52.818;6.516;2023-04-25T13:08:55;3.63;;;1.40;;
60722;SDS011;46574;52.818;6.516;2023-04-25T13:11:21;4.20;;;2.05;;
60722;SDS011;46574;52.818;6.516;2023-04-25T13:13:47;3.38;;;1.55;;
60722;SDS011;46574;52.818;6.516;2023-04-25T13:16:12;5.82;;;1.70;;
60722;SDS011;46574;52.818;6.516;2023-04-25T13:18:41;4.63;;;2.38;;
60722;SDS011;46574;52.818;6.516;2023-04-25T13:21:07;4.50;;;1.48;;
60722;SDS011;46574;52.818;6.516;2023-04-25T13:23:35;6.75;;;1.77;;
60722;SDS011;46574;52.818;6.516;2023-04-25T13:26:01;4.97;;;1.83;;
60722;SDS011;46574;52.818;6.516;2023-04-25T13:28:27;6.25;;;1.77;;
60722;SDS011;46574;52.818;6.516;2023-04-25T13:30:53;7.63;;;1.75;;
60722;SDS011;46574;52.818;6.516;2023-04-25T13:33:19;5.25;;;1.63;;
60722;SDS011;46574;52.818;6.516;2023-04-25T13:35:46;3.83;;;1.40;;
60722;SDS011;46574;52.818;6.516;2023-04-25T13:38:18;5.93;;;1.48;;
60722;SDS011;46574;52.818;6.516;2023-04-25T13:40:45;3.63;;;1.27;;
60722;SDS011;46574;52.818;6.516;2023-04-25T13:43:11;4.47;;;1.15;;
60722;SDS011;46574;52.818;6.516;2023-04-25T13:45:36;2.40;;;0.98;;
60722;SDS011;46574;52.818;6.516;2023-04-25T13:48:02;2.25;;;0.90;;
60722;SDS011;46574;52.818;6.516;2023-04-25T13:50:28;4.97;;;1.60;;
60722;SDS011;46574;52.818;6.516;2023-04-25T13:52:54;2.65;;;1.10;;
60722;SDS011;46574;52.818;6.516;2023-04-25T13:55:19;3.67;;;1.10;;
60722;SDS011;46574;52.818;6.516;2023-04-25T13:57:45;3.28;;;1.35;;
60722;SDS011;46574;52.818;6.516;2023-04-25T14:00:11;5.63;;;1.40;;
60722;SDS011;46574;52.818;6.516;2023-04-25T14:02:38;4.13;;;1.40;;
60722;SDS011;46574;52.818;6.516;2023-04-25T14:05:04;3.70;;;1.30;;
60722;SDS011;46574;52.818;6.516;2023-04-25T14:07:30;4.75;;;1.30;;
60722;SDS011;46574;52.818;6.516;2023-04-25T14:09:56;4.32;;;1.63;;
60722;SDS011;46574;52.818;6.516;2023-04-25T14:12:25;6.60;;;1.98;;
60722;SDS011;46574;52.818;6.516;2023-04-25T14:14:51;5.68;;;1.77;;
60722;SDS011;46574;52.818;6.516;2023-04-25T14:17:18;6.07;;;1.90;;
60722;SDS011;46574;52.818;6.516;2023-04-25T14:19:44;4.65;;;1.60;;
60722;SDS011;46574;52.818;6.516;2023-04-25T14:22:10;6.35;;;1.60;;
60722;SDS011;46574;52.818;6.516;2023-04-25T14:24:36;4.15;;;2.13;;
60722;SDS011;46574;52.818;6.516;2023-04-25T14:27:03;4.32;;;1.88;;
60722;SDS011;46574;52.818;6.516;2023-04-25T14:29:29;4.28;;;1.30;;
60722;SDS011;46574;52.818;6.516;2023-04-25T14:31:54;7.97;;;1.92;;
60722;SDS011;46574;52.818;6.516;2023-04-25T14:34:22;7.93;;;1.95;;
60722;SDS011;46574;52.818;6.516;2023-04-25T14:36:48;5.32;;;2.10;;
60722;SDS011;46574;52.818;6.516;2023-04-25T14:39:13;6.95;;;2.65;;
60722;SDS011;46574;52.818;6.516;2023-04-25T14:41:39;5.18;;;2.20;;
60722;SDS011;46574;52.818;6.516;2023-04-25T14:44:05;6.15;;;2.33;;
60722;SDS011;46574;52.818;6.516;2023-04-25T14:46:31;4.78;;;1.60;;
60722;SDS011;46574;52.818;6.516;2023-04-25T14:48:56;7.03;;;2.00;;
60722;SDS011;46574;52.818;6.516;2023-04-25T14:51:22;7.75;;;2.22;;
60722;SDS011;46574;52.818;6.516;2023-04-25T14:53:48;6.68;;;2.15;;
60722;SDS011;46574;52.818;6.516;2023-04-25T14:56:14;7.55;;;2.08;;
60722;SDS011;46574;52.818;6.516;2023-04-25T14:58:39;6.55;;;2.00;;
60722;SDS011;46574;52.818;6.516;2023-04-25T15:01:05;5.15;;;2.25;;
60722;SDS011;46574;52.818;6.516;2023-04-25T15:03:32;4.32;;;1.92;;